sensor_id;sensor_type;location;lat;lon;timestamp;pressure;altitude;pressure_sealevel;temperature;humidity
20897;BME280;10608;42.600;23.398;2023-05-24T00:00:20;62864.19;;;-138.16;100.00
20897;BME280;10608;42.600;23.398;2023-05-24T00:02:46;62864.19;;;-138.16;100.00
20897;BME280;10608;42.600;23.398;2023-05-24T00:05:12;62864.19;;;-138.16;100.00
20897;BME280;10608;42.600;23.398;2023-05-24T00:07:38;62864.19;;;-138.16;100.00
20897;BME280;10608;42.600;23.398;2023-05-24T00:10:05;62864.19;;;-138.16;100.00
20897;BME280;10608;42.600;23.398;2023-05-24T00:12:31;62864.19;;;-138.16;100.00
20897;BME280;10608;42.600;23.398;2023-05-24T00:14:56;62864.19;;;-138.16;100.00
20897;BME280;10608;42.600;23.398;2023-05-24T00:17:22;62864.19;;;-138.16;100.00
20897;BME280;10608;42.600;23.398;2023-05-24T00:19:48;62864.19;;;-138.16;100.00
20897;BME280;10608;42.600;23.398;2023-05-24T00:22:14;62864.19;;;-138.16;100.00
20897;BME280;10608;42.600;23.398;2023-05-24T00:24:39;62864.19;;;-138.16;100.00
20897;BME280;10608;42.600;23.398;2023-05-24T00:27:05;62864.19;;;-138.16;100.00
20897;BME280;10608;42.600;23.398;2023-05-24T00:29:31;62864.19;;;-138.16;100.00
20897;BME280;10608;42.600;23.398;2023-05-24T00:31:56;62864.19;;;-138.16;100.00
20897;BME280;10608;42.600;23.398;2023-05-24T00:34:21;62864.19;;;-138.16;100.00
20897;BME280;10608;42.600;23.398;2023-05-24T00:36:47;62864.19;;;-138.16;100.00
20897;BME280;10608;42.600;23.398;2023-05-24T00:39:12;62864.19;;;-138.16;100.00
20897;BME280;10608;42.600;23.398;2023-05-24T00:41:38;62864.19;;;-138.16;100.00
20897;BME280;10608;42.600;23.398;2023-05-24T00:44:03;62864.19;;;-138.16;100.00
20897;BME280;10608;42.600;23.398;2023-05-24T00:46:33;62864.19;;;-138.16;100.00
20897;BME280;10608;42.600;23.398;2023-05-24T00:49:00;62864.19;;;-138.16;100.00
20897;BME280;10608;42.600;23.398;2023-05-24T00:51:26;62864.19;;;-138.16;100.00
20897;BME280;10608;42.600;23.398;2023-05-24T00:53:52;62864.19;;;-138.16;100.00
20897;BME280;10608;42.600;23.398;2023-05-24T00:56:19;62864.19;;;-138.16;100.00
20897;BME280;10608;42.600;23.398;2023-05-24T00:58:44;62864.19;;;-138.16;100.00
20897;BME280;10608;42.600;23.398;2023-05-24T01:01:10;62864.19;;;-138.16;100.00
20897;BME280;10608;42.600;23.398;2023-05-24T01:03:36;62864.19;;;-138.16;100.00
20897;BME280;10608;42.600;23.398;2023-05-24T01:06:03;62864.19;;;-138.16;100.00
20897;BME280;10608;42.600;23.398;2023-05-24T01:11:16;62864.19;;;-138.16;100.00
20897;BME280;10608;42.600;23.398;2023-05-24T01:17:19;62864.19;;;-138.16;100.00
20897;BME280;10608;42.600;23.398;2023-05-24T01:22:40;62864.19;;;-138.16;100.00
20897;BME280;10608;42.600;23.398;2023-05-24T01:27:47;62864.19;;;-138.16;100.00
20897;BME280;10608;42.600;23.398;2023-05-24T01:30:12;62864.19;;;-138.16;100.00
20897;BME280;10608;42.600;23.398;2023-05-24T01:32:39;62864.19;;;-138.16;100.00
20897;BME280;10608;42.600;23.398;2023-05-24T01:35:04;62864.19;;;-138.16;100.00
20897;BME280;10608;42.600;23.398;2023-05-24T01:37:30;62864.19;;;-138.16;100.00
20897;BME280;10608;42.600;23.398;2023-05-24T01:39:56;62864.19;;;-138.16;100.00
20897;BME280;10608;42.600;23.398;2023-05-24T01:45:24;62864.19;;;-138.16;100.00
20897;BME280;10608;42.600;23.398;2023-05-24T01:50:49;62864.19;;;-138.16;100.00
20897;BME280;10608;42.600;23.398;2023-05-24T01:53:18;62864.19;;;-138.16;100.00
20897;BME280;10608;42.600;23.398;2023-05-24T01:55:47;62864.19;;;-138.16;100.00
20897;BME280;10608;42.600;23.398;2023-05-24T01:58:15;62864.19;;;-138.16;100.00
20897;BME280;10608;42.600;23.398;2023-05-24T02:00:42;62864.19;;;-138.16;100.00
20897;BME280;10608;42.600;23.398;2023-05-24T02:03:08;62864.19;;;-138.16;100.00
20897;BME280;10608;42.600;23.398;2023-05-24T02:05:34;62864.19;;;-138.16;100.00
20897;BME280;10608;42.600;23.398;2023-05-24T02:07:59;62864.19;;;-138.16;100.00
20897;BME280;10608;42.600;23.398;2023-05-24T02:10:25;62864.19;;;-138.16;100.00
20897;BME280;10608;42.600;23.398;2023-05-24T02:12:50;62864.19;;;-138.16;100.00
20897;BME280;10608;42.600;23.398;2023-05-24T02:15:16;62864.19;;;-138.16;100.00
20897;BME280;10608;42.600;23.398;2023-05-24T02:17:41;62864.19;;;-138.16;100.00
20897;BME280;10608;42.600;23.398;2023-05-24T02:20:08;62864.19;;;-138.16;100.00
20897;BME280;10608;42.600;23.398;2023-05-24T02:22:33;62864.19;;;-138.16;100.00
20897;BME280;10608;42.600;23.398;2023-05-24T02:24:59;62864.19;;;-138.16;100.00
20897;BME280;10608;42.600;23.398;2023-05-24T02:27:25;62864.19;;;-138.16;100.00
20897;BME280;10608;42.600;23.398;2023-05-24T02:29:50;62864.19;;;-138.16;100.00
20897;BME280;10608;42.600;23.398;2023-05-24T02:32:17;62864.19;;;-138.16;100.00
20897;BME280;10608;42.600;23.398;2023-05-24T02:34:42;62864.19;;;-138.16;100.00
20897;BME280;10608;42.600;23.398;2023-05-24T02:37:08;62864.19;;;-138.16;100.00
20897;BME280;10608;42.600;23.398;2023-05-24T02:39:38;62864.19;;;-138.16;100.00
20897;BME280;10608;42.600;23.398;2023-05-24T02:42:04;62864.19;;;-138.16;100.00
20897;BME280;10608;42.600;23.398;2023-05-24T02:44:29;62864.19;;;-138.16;100.00
20897;BME280;10608;42.600;23.398;2023-05-24T02:46:55;62864.19;;;-138.16;100.00
20897;BME280;10608;42.600;23.398;2023-05-24T02:49:20;62864.19;;;-138.16;100.00
20897;BME280;10608;42.600;23.398;2023-05-24T02:51:46;62864.19;;;-138.16;100.00
20897;BME280;10608;42.600;23.398;2023-05-24T02:54:11;62864.19;;;-138.16;100.00
20897;BME280;10608;42.600;23.398;2023-05-24T02:56:36;62864.19;;;-138.16;100.00
20897;BME280;10608;42.600;23.398;2023-05-24T02:59:03;62864.19;;;-138.16;100.00
20897;BME280;10608;42.600;23.398;2023-05-24T03:01:29;62864.19;;;-138.16;100.00
20897;BME280;10608;42.600;23.398;2023-05-24T03:03:54;62864.19;;;-138.16;100.00
20897;BME280;10608;42.600;23.398;2023-05-24T03:06:20;62864.19;;;-138.16;100.00
20897;BME280;10608;42.600;23.398;2023-05-24T03:08:45;62864.19;;;-138.16;100.00
20897;BME280;10608;42.600;23.398;2023-05-24T03:11:11;62864.19;;;-138.16;100.00
20897;BME280;10608;42.600;23.398;2023-05-24T03:13:36;62864.19;;;-138.16;100.00
20897;BME280;10608;42.600;23.398;2023-05-24T03:16:02;62864.19;;;-138.16;100.00
20897;BME280;10608;42.600;23.398;2023-05-24T03:18:28;62864.19;;;-138.16;100.00
20897;BME280;10608;42.600;23.398;2023-05-24T03:20:53;62864.19;;;-138.16;100.00
20897;BME280;10608;42.600;23.398;2023-05-24T03:23:18;62864.19;;;-138.16;100.00
20897;BME280;10608;42.600;23.398;2023-05-24T03:25:44;62864.19;;;-138.16;100.00
20897;BME280;10608;42.600;23.398;2023-05-24T03:28:09;62864.19;;;-138.16;100.00
20897;BME280;10608;42.600;23.398;2023-05-24T03:30:35;62864.19;;;-138.16;100.00
20897;BME280;10608;42.600;23.398;2023-05-24T03:33:00;62864.19;;;-138.16;100.00
20897;BME280;10608;42.600;23.398;2023-05-24T03:35:25;62864.19;;;-138.16;100.00
20897;BME280;10608;42.600;23.398;2023-05-24T03:37:51;62864.19;;;-138.16;100.00
20897;BME280;10608;42.600;23.398;2023-05-24T03:40:17;83212.16;;;-138.15;71.80
20897;BME280;10608;42.600;23.398;2023-05-24T03:42:43;83162.47;;;-138.15;69.56
20897;BME280;10608;42.600;23.398;2023-05-24T03:45:08;83094.91;;;-138.15;67.07
20897;BME280;10608;42.600;23.398;2023-05-24T03:47:34;62864.19;;;-138.16;100.00
20897;BME280;10608;42.600;23.398;2023-05-24T03:49:59;62864.19;;;-138.16;100.00
20897;BME280;10608;42.600;23.398;2023-05-24T03:52:25;62864.19;;;-138.16;100.00
20897;BME280;10608;42.600;23.398;2023-05-24T03:54:50;62864.19;;;-138.16;100.00
20897;BME280;10608;42.600;23.398;2023-05-24T03:57:16;62864.19;;;-138.16;100.00
20897;BME280;10608;42.600;23.398;2023-05-24T03:59:42;62864.19;;;-138.16;100.00
20897;BME280;10608;42.600;23.398;2023-05-24T04:02:07;62864.19;;;-138.16;100.00
20897;BME280;10608;42.600;23.398;2023-05-24T04:04:32;62864.19;;;-138.16;100.00
20897;BME280;10608;42.600;23.398;2023-05-24T04:06:58;62864.19;;;-138.16;100.00
20897;BME280;10608;42.600;23.398;2023-05-24T04:09:24;62864.19;;;-138.16;100.00
20897;BME280;10608;42.600;23.398;2023-05-24T04:11:49;62864.19;;;-138.16;100.00
20897;BME280;10608;42.600;23.398;2023-05-24T04:14:15;62864.19;;;-138.16;100.00
20897;BME280;10608;42.600;23.398;2023-05-24T04:16:40;62864.19;;;-138.16;100.00
20897;BME280;10608;42.600;23.398;2023-05-24T04:19:09;62864.19;;;-138.16;100.00
20897;BME280;10608;42.600;23.398;2023-05-24T04:21:35;62864.19;;;-138.16;100.00
20897;BME280;10608;42.600;23.398;2023-05-24T04:24:01;62864.19;;;-138.16;100.00
20897;BME280;10608;42.600;23.398;2023-05-24T04:26:27;62864.19;;;-138.16;100.00
20897;BME280;10608;42.600;23.398;2023-05-24T04:28:54;62864.19;;;-138.16;100.00
20897;BME280;10608;42.600;23.398;2023-05-24T04:31:20;62864.19;;;-138.16;100.00
20897;BME280;10608;42.600;23.398;2023-05-24T04:33:45;62864.19;;;-138.16;100.00
20897;BME280;10608;42.600;23.398;2023-05-24T04:36:12;62864.19;;;-138.16;100.00
20897;BME280;10608;42.600;23.398;2023-05-24T04:38:38;62864.19;;;-138.16;100.00
20897;BME280;10608;42.600;23.398;2023-05-24T04:41:05;62864.19;;;-138.16;100.00
20897;BME280;10608;42.600;23.398;2023-05-24T04:43:31;62864.19;;;-138.16;100.00
20897;BME280;10608;42.600;23.398;2023-05-24T04:45:58;62864.19;;;-138.16;100.00
20897;BME280;10608;42.600;23.398;2023-05-24T04:48:24;62864.19;;;-138.16;100.00
20897;BME280;10608;42.600;23.398;2023-05-24T04:50:50;62864.19;;;-138.16;100.00
20897;BME280;10608;42.600;23.398;2023-05-24T04:53:17;62864.19;;;-138.16;100.00
20897;BME280;10608;42.600;23.398;2023-05-24T04:55:42;62864.19;;;-138.16;100.00
20897;BME280;10608;42.600;23.398;2023-05-24T04:58:08;62864.19;;;-138.16;100.00
20897;BME280;10608;42.600;23.398;2023-05-24T05:00:33;62864.19;;;-138.16;100.00
20897;BME280;10608;42.600;23.398;2023-05-24T05:02:58;62864.19;;;-138.16;100.00
20897;BME280;10608;42.600;23.398;2023-05-24T05:05:24;62864.19;;;-138.16;100.00
20897;BME280;10608;42.600;23.398;2023-05-24T05:07:49;62864.19;;;-138.16;100.00
20897;BME280;10608;42.600;23.398;2023-05-24T05:10:15;62864.19;;;-138.16;100.00
20897;BME280;10608;42.600;23.398;2023-05-24T05:12:40;62864.19;;;-138.16;100.00
20897;BME280;10608;42.600;23.398;2023-05-24T05:15:06;62864.19;;;-138.16;100.00
20897;BME280;10608;42.600;23.398;2023-05-24T05:17:32;62864.19;;;-138.16;100.00
20897;BME280;10608;42.600;23.398;2023-05-24T05:19:57;62864.19;;;-138.16;100.00
20897;BME280;10608;42.600;23.398;2023-05-24T05:22:23;62864.19;;;-138.16;100.00
20897;BME280;10608;42.600;23.398;2023-05-24T05:24:48;62864.19;;;-138.16;100.00
20897;BME280;10608;42.600;23.398;2023-05-24T05:27:13;62864.19;;;-138.16;100.00
20897;BME280;10608;42.600;23.398;2023-05-24T05:29:39;62864.19;;;-138.16;100.00
20897;BME280;10608;42.600;23.398;2023-05-24T05:32:05;62864.19;;;-138.16;100.00
20897;BME280;10608;42.600;23.398;2023-05-24T05:34:31;62864.19;;;-138.16;100.00
20897;BME280;10608;42.600;23.398;2023-05-24T05:36:56;62864.19;;;-138.16;100.00
20897;BME280;10608;42.600;23.398;2023-05-24T05:39:21;62864.19;;;-138.16;100.00
20897;BME280;10608;42.600;23.398;2023-05-24T05:41:47;62864.19;;;-138.16;100.00
20897;BME280;10608;42.600;23.398;2023-05-24T05:44:12;62864.19;;;-138.16;100.00
20897;BME280;10608;42.600;23.398;2023-05-24T05:46:38;62864.19;;;-138.16;100.00
20897;BME280;10608;42.600;23.398;2023-05-24T05:49:05;62864.19;;;-138.16;100.00
20897;BME280;10608;42.600;23.398;2023-05-24T05:51:30;62864.19;;;-138.16;100.00
20897;BME280;10608;42.600;23.398;2023-05-24T05:53:56;62864.19;;;-138.16;100.00
20897;BME280;10608;42.600;23.398;2023-05-24T05:56:22;62864.19;;;-138.16;100.00
20897;BME280;10608;42.600;23.398;2023-05-24T05:58:47;62864.19;;;-138.16;100.00
20897;BME280;10608;42.600;23.398;2023-05-24T06:01:14;62864.19;;;-138.16;100.00
20897;BME280;10608;42.600;23.398;2023-05-24T06:03:39;62864.19;;;-138.16;100.00
20897;BME280;10608;42.600;23.398;2023-05-24T06:06:05;62864.19;;;-138.16;100.00
20897;BME280;10608;42.600;23.398;2023-05-24T06:08:30;62864.19;;;-138.16;100.00
20897;BME280;10608;42.600;23.398;2023-05-24T06:11:02;62864.19;;;-138.16;100.00
20897;BME280;10608;42.600;23.398;2023-05-24T06:13:28;62864.19;;;-138.16;100.00
20897;BME280;10608;42.600;23.398;2023-05-24T06:15:55;62864.19;;;-138.16;100.00
20897;BME280;10608;42.600;23.398;2023-05-24T06:18:21;62864.19;;;-138.16;100.00
20897;BME280;10608;42.600;23.398;2023-05-24T06:20:46;62864.19;;;-138.16;100.00
20897;BME280;10608;42.600;23.398;2023-05-24T06:23:11;62864.19;;;-138.16;100.00
20897;BME280;10608;42.600;23.398;2023-05-24T06:25:37;62864.19;;;-138.16;100.00
20897;BME280;10608;42.600;23.398;2023-05-24T06:28:04;62864.19;;;-138.16;100.00
20897;BME280;10608;42.600;23.398;2023-05-24T06:30:30;62864.19;;;-138.16;100.00
20897;BME280;10608;42.600;23.398;2023-05-24T06:32:57;62864.19;;;-138.16;100.00
20897;BME280;10608;42.600;23.398;2023-05-24T06:35:23;62864.19;;;-138.16;100.00
20897;BME280;10608;42.600;23.398;2023-05-24T06:37:48;62864.19;;;-138.16;100.00
20897;BME280;10608;42.600;23.398;2023-05-24T06:40:13;62864.19;;;-138.16;100.00
20897;BME280;10608;42.600;23.398;2023-05-24T06:42:39;62864.19;;;-138.16;100.00
20897;BME280;10608;42.600;23.398;2023-05-24T06:45:05;62864.19;;;-138.16;100.00
20897;BME280;10608;42.600;23.398;2023-05-24T06:47:30;62864.19;;;-138.16;100.00
20897;BME280;10608;42.600;23.398;2023-05-24T06:49:56;62864.19;;;-138.16;100.00
20897;BME280;10608;42.600;23.398;2023-05-24T06:52:22;62864.19;;;-138.16;100.00
20897;BME280;10608;42.600;23.398;2023-05-24T06:54:48;62864.19;;;-138.16;100.00
20897;BME280;10608;42.600;23.398;2023-05-24T06:57:14;62864.19;;;-138.16;100.00
20897;BME280;10608;42.600;23.398;2023-05-24T06:59:39;62864.19;;;-138.16;100.00
20897;BME280;10608;42.600;23.398;2023-05-24T07:02:05;62864.19;;;-138.16;100.00
20897;BME280;10608;42.600;23.398;2023-05-24T07:04:30;62864.19;;;-138.16;100.00
20897;BME280;10608;42.600;23.398;2023-05-24T07:06:56;62864.19;;;-138.16;100.00
20897;BME280;10608;42.600;23.398;2023-05-24T07:09:22;62864.19;;;-138.16;100.00
20897;BME280;10608;42.600;23.398;2023-05-24T07:11:48;62864.19;;;-138.16;100.00
20897;BME280;10608;42.600;23.398;2023-05-24T07:14:13;62864.19;;;-138.16;100.00
20897;BME280;10608;42.600;23.398;2023-05-24T07:16:39;62864.19;;;-138.16;100.00
20897;BME280;10608;42.600;23.398;2023-05-24T07:19:04;62864.19;;;-138.16;100.00
20897;BME280;10608;42.600;23.398;2023-05-24T07:21:30;62864.19;;;-138.16;100.00
20897;BME280;10608;42.600;23.398;2023-05-24T07:23:55;62864.19;;;-138.16;100.00
20897;BME280;10608;42.600;23.398;2023-05-24T07:26:21;62864.19;;;-138.16;100.00
20897;BME280;10608;42.600;23.398;2023-05-24T07:28:47;62864.19;;;-138.16;100.00
20897;BME280;10608;42.600;23.398;2023-05-24T07:31:13;62864.19;;;-138.16;100.00
20897;BME280;10608;42.600;23.398;2023-05-24T07:33:38;62864.19;;;-138.16;100.00
20897;BME280;10608;42.600;23.398;2023-05-24T07:36:04;62864.19;;;-138.16;100.00
20897;BME280;10608;42.600;23.398;2023-05-24T07:38:31;62864.19;;;-138.16;100.00
20897;BME280;10608;42.600;23.398;2023-05-24T07:41:01;62864.19;;;-138.16;100.00
20897;BME280;10608;42.600;23.398;2023-05-24T07:43:28;62864.19;;;-138.16;100.00
20897;BME280;10608;42.600;23.398;2023-05-24T07:45:53;62864.19;;;-138.16;100.00
20897;BME280;10608;42.600;23.398;2023-05-24T07:48:19;62864.19;;;-138.16;100.00
20897;BME280;10608;42.600;23.398;2023-05-24T07:50:48;62864.19;;;-138.16;100.00
20897;BME280;10608;42.600;23.398;2023-05-24T07:53:17;62864.19;;;-138.16;100.00
20897;BME280;10608;42.600;23.398;2023-05-24T07:55:42;62864.19;;;-138.16;100.00
20897;BME280;10608;42.600;23.398;2023-05-24T07:58:11;62864.19;;;-138.16;100.00
20897;BME280;10608;42.600;23.398;2023-05-24T08:00:36;62864.19;;;-138.16;100.00
20897;BME280;10608;42.600;23.398;2023-05-24T08:03:02;62864.19;;;-138.16;100.00
20897;BME280;10608;42.600;23.398;2023-05-24T08:05:29;62864.19;;;-138.16;100.00
20897;BME280;10608;42.600;23.398;2023-05-24T08:07:55;62864.19;;;-138.16;100.00
20897;BME280;10608;42.600;23.398;2023-05-24T08:10:21;62864.19;;;-138.16;100.00
20897;BME280;10608;42.600;23.398;2023-05-24T08:12:47;62864.19;;;-138.16;100.00
20897;BME280;10608;42.600;23.398;2023-05-24T08:15:15;62864.19;;;-138.16;100.00
20897;BME280;10608;42.600;23.398;2023-05-24T08:17:41;62864.19;;;-138.16;100.00
20897;BME280;10608;42.600;23.398;2023-05-24T08:20:07;62864.19;;;-138.16;100.00
20897;BME280;10608;42.600;23.398;2023-05-24T08:22:34;62864.19;;;-138.16;100.00
20897;BME280;10608;42.600;23.398;2023-05-24T08:24:59;62864.19;;;-138.16;100.00
20897;BME280;10608;42.600;23.398;2023-05-24T08:27:24;62864.19;;;-138.16;100.00
20897;BME280;10608;42.600;23.398;2023-05-24T08:29:53;62864.19;;;-138.16;100.00
20897;BME280;10608;42.600;23.398;2023-05-24T08:32:18;62864.19;;;-138.16;100.00
20897;BME280;10608;42.600;23.398;2023-05-24T08:34:44;62864.19;;;-138.16;100.00
20897;BME280;10608;42.600;23.398;2023-05-24T08:37:09;62864.19;;;-138.16;100.00
20897;BME280;10608;42.600;23.398;2023-05-24T08:39:35;62864.19;;;-138.16;100.00
20897;BME280;10608;42.600;23.398;2023-05-24T08:42:01;62864.19;;;-138.16;100.00
20897;BME280;10608;42.600;23.398;2023-05-24T08:44:28;62864.19;;;-138.16;100.00
20897;BME280;10608;42.600;23.398;2023-05-24T08:46:54;62864.19;;;-138.16;100.00
20897;BME280;10608;42.600;23.398;2023-05-24T08:49:20;62864.19;;;-138.16;100.00
20897;BME280;10608;42.600;23.398;2023-05-24T08:51:46;62864.19;;;-138.16;100.00
20897;BME280;10608;42.600;23.398;2023-05-24T08:54:12;62864.19;;;-138.16;100.00
20897;BME280;10608;42.600;23.398;2023-05-24T08:56:39;62864.19;;;-138.16;100.00
20897;BME280;10608;42.600;23.398;2023-05-24T08:59:05;62864.19;;;-138.16;100.00
20897;BME280;10608;42.600;23.398;2023-05-24T09:01:31;62864.19;;;-138.16;100.00
20897;BME280;10608;42.600;23.398;2023-05-24T09:03:58;62864.19;;;-138.16;100.00
20897;BME280;10608;42.600;23.398;2023-05-24T09:06:24;62864.19;;;-138.16;100.00
20897;BME280;10608;42.600;23.398;2023-05-24T09:08:51;62864.19;;;-138.16;100.00
20897;BME280;10608;42.600;23.398;2023-05-24T09:11:18;62864.19;;;-138.16;100.00
20897;BME280;10608;42.600;23.398;2023-05-24T09:13:45;62864.19;;;-138.16;100.00
20897;BME280;10608;42.600;23.398;2023-05-24T09:16:12;62864.19;;;-138.16;100.00
20897;BME280;10608;42.600;23.398;2023-05-24T09:18:39;62864.19;;;-138.16;100.00
20897;BME280;10608;42.600;23.398;2023-05-24T09:21:07;62864.19;;;-138.16;100.00
20897;BME280;10608;42.600;23.398;2023-05-24T09:23:33;62864.19;;;-138.16;100.00
20897;BME280;10608;42.600;23.398;2023-05-24T09:26:08;62864.19;;;-138.16;100.00
20897;BME280;10608;42.600;23.398;2023-05-24T09:28:34;62864.19;;;-138.16;100.00
20897;BME280;10608;42.600;23.398;2023-05-24T09:31:01;62864.19;;;-138.16;100.00
20897;BME280;10608;42.600;23.398;2023-05-24T09:33:31;62864.19;;;-138.16;100.00
20897;BME280;10608;42.600;23.398;2023-05-24T09:36:01;62864.19;;;-138.16;100.00
20897;BME280;10608;42.600;23.398;2023-05-24T09:38:27;62864.19;;;-138.16;100.00
20897;BME280;10608;42.600;23.398;2023-05-24T09:41:04;62864.19;;;-138.16;100.00
20897;BME280;10608;42.600;23.398;2023-05-24T09:43:32;62864.19;;;-138.16;100.00
20897;BME280;10608;42.600;23.398;2023-05-24T09:46:01;62864.19;;;-138.16;100.00
20897;BME280;10608;42.600;23.398;2023-05-24T09:48:27;62864.19;;;-138.16;100.00
20897;BME280;10608;42.600;23.398;2023-05-24T09:51:12;62864.19;;;-138.16;100.00
20897;BME280;10608;42.600;23.398;2023-05-24T09:53:43;62864.19;;;-138.16;100.00
20897;BME280;10608;42.600;23.398;2023-05-24T09:56:09;62864.19;;;-138.16;100.00
20897;BME280;10608;42.600;23.398;2023-05-24T09:58:34;62864.19;;;-138.16;100.00
20897;BME280;10608;42.600;23.398;2023-05-24T10:03:30;62864.19;;;-138.16;100.00
20897;BME280;10608;42.600;23.398;2023-05-24T10:05:57;62864.19;;;-138.16;100.00
20897;BME280;10608;42.600;23.398;2023-05-24T10:08:22;62864.19;;;-138.16;100.00
20897;BME280;10608;42.600;23.398;2023-05-24T10:10:48;82514.59;;;-138.15;19.71
20897;BME280;10608;42.600;23.398;2023-05-24T10:13:14;78419.00;;;-138.15;22.24
20897;BME280;10608;42.600;23.398;2023-05-24T10:15:43;78422.97;;;-138.15;20.12
20897;BME280;10608;42.600;23.398;2023-05-24T10:18:09;78617.53;;;-138.15;20.46
20897;BME280;10608;42.600;23.398;2023-05-24T10:20:35;78772.38;;;-138.15;23.07
20897;BME280;10608;42.600;23.398;2023-05-24T10:23:03;78557.97;;;-138.15;21.08
20897;BME280;10608;42.600;23.398;2023-05-24T10:25:32;78500.41;;;-138.15;22.01
20897;BME280;10608;42.600;23.398;2023-05-24T10:28:03;78490.47;;;-138.15;22.95
20897;BME280;10608;42.600;23.398;2023-05-24T10:31:04;78361.44;;;-138.15;22.72
20897;BME280;10608;42.600;23.398;2023-05-24T10:33:34;78214.53;;;-138.15;21.13
20897;BME280;10608;42.600;23.398;2023-05-24T10:36:03;78109.31;;;-138.15;21.52
20897;BME280;10608;42.600;23.398;2023-05-24T10:38:29;78440.84;;;-138.15;21.95
20897;BME280;10608;42.600;23.398;2023-05-24T10:40:55;78301.88;;;-138.15;22.12
20897;BME280;10608;42.600;23.398;2023-05-24T10:43:20;78278.06;;;-138.15;20.44
20897;BME280;10608;42.600;23.398;2023-05-24T10:45:49;78534.16;;;-138.15;20.17
20897;BME280;10608;42.600;23.398;2023-05-24T10:50:41;78422.97;;;-138.15;20.87
20897;BME280;10608;42.600;23.398;2023-05-24T10:53:17;78377.31;;;-138.15;21.33
20897;BME280;10608;42.600;23.398;2023-05-24T10:56:00;78534.16;;;-138.15;19.79
20897;BME280;10608;42.600;23.398;2023-05-24T11:00:59;78738.63;;;-138.15;20.00
20897;BME280;10608;42.600;23.398;2023-05-24T11:03:31;78887.53;;;-138.15;19.89
20897;BME280;10608;42.600;23.398;2023-05-24T11:05:57;78740.63;;;-138.15;20.54
20897;BME280;10608;42.600;23.398;2023-05-24T11:08:29;78534.16;;;-138.15;22.39
20897;BME280;10608;42.600;23.398;2023-05-24T11:13:40;78740.63;;;-138.15;21.62
20897;BME280;10608;42.600;23.398;2023-05-24T11:16:05;78478.56;;;-138.15;20.60
20897;BME280;10608;42.600;23.398;2023-05-24T11:18:31;78522.22;;;-138.15;21.33
20897;BME280;10608;42.600;23.398;2023-05-24T11:21:03;78722.75;;;-138.15;22.50
20897;BME280;10608;42.600;23.398;2023-05-24T11:23:30;78744.59;;;-138.15;20.72
20897;BME280;10608;42.600;23.398;2023-05-24T11:25:55;78577.81;;;-138.15;21.62
20897;BME280;10608;42.600;23.398;2023-05-24T11:28:22;78593.72;;;-138.15;20.83
20897;BME280;10608;42.600;23.398;2023-05-24T11:30:47;78764.44;;;-138.15;21.66
20897;BME280;10608;42.600;23.398;2023-05-24T11:33:17;79024.53;;;-138.15;20.82
20897;BME280;10608;42.600;23.398;2023-05-24T11:35:43;78826.00;;;-138.15;22.54
20897;BME280;10608;42.600;23.398;2023-05-24T11:38:13;78708.84;;;-138.15;22.00
20897;BME280;10608;42.600;23.398;2023-05-24T11:40:44;78563.94;;;-138.15;22.50
20897;BME280;10608;42.600;23.398;2023-05-24T11:43:15;78557.97;;;-138.15;21.88
20897;BME280;10608;42.600;23.398;2023-05-24T11:45:42;78718.78;;;-138.15;21.14
20897;BME280;10608;42.600;23.398;2023-05-24T11:48:11;78847.84;;;-138.15;21.45
20897;BME280;10608;42.600;23.398;2023-05-24T11:50:38;78835.91;;;-138.15;21.35
20897;BME280;10608;42.600;23.398;2023-05-24T11:53:03;78790.25;;;-138.15;20.72
20897;BME280;10608;42.600;23.398;2023-05-24T11:55:29;78827.97;;;-138.15;23.21
20897;BME280;10608;42.600;23.398;2023-05-24T11:57:57;78837.91;;;-138.15;20.34
20897;BME280;10608;42.600;23.398;2023-05-24T12:00:26;78959.00;;;-138.15;20.84
20897;BME280;10608;42.600;23.398;2023-05-24T12:02:56;79022.56;;;-138.15;21.67
20897;BME280;10608;42.600;23.398;2023-05-24T12:05:22;78903.41;;;-138.15;21.49
20897;BME280;10608;42.600;23.398;2023-05-24T12:08:00;78865.69;;;-138.15;21.48
20897;BME280;10608;42.600;23.398;2023-05-24T12:10:25;78887.53;;;-138.15;21.24
20897;BME280;10608;42.600;23.398;2023-05-24T12:12:51;78959.00;;;-138.15;23.26
20897;BME280;10608;42.600;23.398;2023-05-24T12:15:17;79117.84;;;-138.15;21.52
20897;BME280;10608;42.600;23.398;2023-05-24T12:17:43;78941.16;;;-138.15;22.35
20897;BME280;10608;42.600;23.398;2023-05-24T12:20:14;78814.06;;;-138.15;21.92
20897;BME280;10608;42.600;23.398;2023-05-24T12:22:55;78744.59;;;-138.15;21.22
20897;BME280;10608;42.600;23.398;2023-05-24T12:25:22;78635.41;;;-138.15;22.47
20897;BME280;10608;42.600;23.398;2023-05-24T12:27:56;78863.72;;;-138.15;21.82
20897;BME280;10608;42.600;23.398;2023-05-24T12:30:23;78903.41;;;-138.15;22.39
20897;BME280;10608;42.600;23.398;2023-05-24T12:32:49;79070.19;;;-138.15;22.80
20897;BME280;10608;42.600;23.398;2023-05-24T12:35:19;78986.81;;;-138.15;22.79
20897;BME280;10608;42.600;23.398;2023-05-24T12:37:45;78895.47;;;-138.15;22.38
20897;BME280;10608;42.600;23.398;2023-05-24T12:40:19;78889.53;;;-138.15;21.82
20897;BME280;10608;42.600;23.398;2023-05-24T12:42:54;79058.28;;;-138.15;22.60
20897;BME280;10608;42.600;23.398;2023-05-24T12:45:25;78887.53;;;-138.15;22.14
20897;BME280;10608;42.600;23.398;2023-05-24T12:47:52;78792.25;;;-138.15;22.56